This is the latest recevied weather packets stored in our database for station/object AG1T-20. If no packets are shown the sender has not sent any weather packets the latest 10 day(s).
| Time | Temp. | Humidity | Pressure | Rain* | Wind** | Luminosity | Snow |
|---|---|---|---|---|---|---|---|
| 1787470805 | 21.11° C | 56% | 1022.8 hPa | 0 mm | - | 0 W/m² | - |
| 1787470205 | 21.67° C | 56% | 1022.8 hPa | 0 mm | - | 0 W/m² | - |
| 1787469605 | 21.11° C | 58% | 1022.8 hPa | 0 mm | - | 0 W/m² | - |
| 1787469005 | 22.22° C | 49% | 1022.8 hPa | 0 mm | - | 0 W/m² | - |
| 1787468405 | 21.67° C | 53% | 1022.8 hPa | 0 mm | - | 0 W/m² | - |
| 1787467805 | 22.22° C | 51% | 1023.4 hPa | 0 mm | - | 0 W/m² | - |
| 1787467205 | 22.22° C | 53% | 1023.4 hPa | 0 mm | - | 0 W/m² | - |
| 1787466604 | 22.22° C | 52% | 1023.4 hPa | 0 mm | - | 0 W/m² | - |
| 1787466005 | 22.78° C | 49% | 1023.4 hPa | 0 mm | - | 0 W/m² | - |
| 1787465405 | 22.78° C | 48% | 1023.4 hPa | 0 mm | - | 0 W/m² | - |
| 1787464805 | 22.78° C | 50% | 1023.4 hPa | 0 mm | - | 0 W/m² | - |
| 1787464205 | 22.22° C | 55% | 1023.1 hPa | 0 mm | - | 0 W/m² | - |
| 1787463604 | 22.22° C | 52% | 1023.1 hPa | 0 mm | - | 0 W/m² | - |
| 1787463005 | 23.33° C | 50% | 1023.1 hPa | 0 mm | - | 0 W/m² | - |
| 1787462405 | 22.78° C | 59% | 1023.1 hPa | 0 mm | - | 0 W/m² | - |
| 1787461804 | 22.78° C | 57% | 1023.1 hPa | 0 mm | - | 0 W/m² | - |
| 1787461204 | 23.89° C | 55% | 1023.1 hPa | 0 mm | - | 0 W/m² | - |
| 1787460604 | 23.33° C | 51% | 1022.1 hPa | 0 mm | - | 0 W/m² | - |
| 1787460005 | 23.89° C | 48% | 1022.1 hPa | 0 mm | - | 0 W/m² | - |
| 1787459405 | 23.89° C | 48% | 1022.1 hPa | 0 mm | - | 0 W/m² | - |
| 1787458804 | 23.33° C | 48% | 1022.1 hPa | 0 mm | - | 0 W/m² | - |
| 1787458205 | 23.89° C | 48% | 1022.1 hPa | 0 mm | - | 0 W/m² | - |
| 1787457605 | 23.33° C | 49% | 1022.1 hPa | 0 mm | - | 0 W/m² | - |
| 1787457005 | 23.33° C | 50% | 1020.6 hPa | 0 mm | - | 0 W/m² | - |
| 1787456404 | 24.44° C | 47% | 1020.6 hPa | 0 mm | - | 0 W/m² | - |
* Rain latest hour (hover to see other rain measurements)
** Current wind speed in m/s (hover to see current wind gust speed)